Lr2 Pioneer — VREE7 — position and weather

sailwx.info

Track history (hours):
 
Tides and Currents Weather Stations Pressure Air Temp Water Temp Dewpoint Dewpoint Depression Visibility Wind Speed Wind Dir Waves Ship Positions

Lr2 Pioneer

Last reported at 2015-Jan-25 13:30 UTC. Time now 2015-Jan-26 00:21 UTC.
Position N 35°32' E 140°00'.

Length 244 m; draft 12.4 m.

Type: Ship. MMSI: 477114400.

Date/timePositionNaut miles runAvg speedWind from/ knotsBaromVisibWave heightAir tempDewpointWater temp
2015-Jan-25 13:30N 35°32' E 140°00'0 0.0
2015-Jan-24 01:33N 35°32' E 140°00'1 0.9
2015-Jan-24 00:33N 35°31' E 140°01'1 0.0
2015-Jan-23 00:30N 35°31' E 140°02'2 2.4
2015-Jan-22 23:34N 35°31' E 139°59'8 7.9
2015-Jan-22 22:33N 35°28' E 139°51'1110.7
2015-Jan-22 21:33N 35°19' E 139°44'9 9.3
2015-Jan-22 20:33N 35°09' E 139°47'5 5.4
2015-Jan-22 19:33N 35°05' E 139°43'6 5.9
2015-Jan-22 18:33N 35°01' E 139°37'8 8.2
2015-Jan-22 17:33N 34°57' E 139°29'10 9.4
2015-Jan-22 16:27N 34°50' E 139°19'  
Track history (hours):
 
Tides and Currents Weather Stations Pressure Air Temp Water Temp Dewpoint Dewpoint Depression Visibility Wind Speed Wind Dir Waves Ship Positions

Lr2 Pioneer

Last reported at 2015-Jan-25 13:30 UTC. Time now 2015-Jan-26 00:21 UTC.
Position N 35°32' E 140°00'.

Length 244 m; draft 12.4 m.

Type: Ship. MMSI: 477114400.

Date/timePositionNaut miles runAvg speedWind from/ knotsBaromVisibWave heightAir tempDewpointWater temp
2015-Jan-25 13:30N 35°32' E 140°00'0 0.0
2015-Jan-24 01:33N 35°32' E 140°00'1 0.9
2015-Jan-24 00:33N 35°31' E 140°01'1 0.0
2015-Jan-23 00:30N 35°31' E 140°02'2 2.4
2015-Jan-22 23:34N 35°31' E 139°59'8 7.9
2015-Jan-22 22:33N 35°28' E 139°51'1110.7
2015-Jan-22 21:33N 35°19' E 139°44'9 9.3
2015-Jan-22 20:33N 35°09' E 139°47'5 5.4
2015-Jan-22 19:33N 35°05' E 139°43'6 5.9
2015-Jan-22 18:33N 35°01' E 139°37'8 8.2
2015-Jan-22 17:33N 34°57' E 139°29'10 9.4
2015-Jan-22 16:27N 34°50' E 139°19'  

Dump ship's entire track history